Aviation Digital Data Service (ADDS)

Output produced by TAFs form (0935 UTC 01 April 2015)
found at http://www.aviationweather.gov/adds/tafs/
 
KGFL 010520Z 0106/0206 34005KT P6SM SKC 
     FM011400 34008KT P6SM SCT250 
     FM012200 VRB03KT P6SM SCT120 BKN250